Estación Meteorológica Peña el Pijo (Robertgarden) [ 11/19/19 11:59:20 CET ]

Fecha Hora Presion(HPa) Temp (°C) Humedad % Rocio (°C) Viento ( m/s) Direccion Lluvia 1Hora(mm) Lluvia 24H(mm) LLuvia Total(mm)
2019-May-12 01:01:45 1014.300 14.2 74 9.6         318.05
2019-May-12 02:01:32 1014.600 12.8 77 8.8         318.05
2019-May-12 03:02:24 1014.600 11.8 79 8.3         318.05
2019-May-12 04:02:04 1014.600 12.3 82 9.3         318.05
2019-May-12 05:03:09 1014.700 11.6 83 8.8         318.05
2019-May-12 06:01:59 1014.700 11.6 83 8.8         318.05
2019-May-12 07:02:02 1015.000 11.0 84 8.4         318.05
2019-May-12 08:01:52 1015.100 12.5 84 9.8         318.05
2019-May-12 09:01:41 1014.800 14.9 81 11.7         318.05
2019-May-12 10:01:34 1014.800 18.4 67 12.1         318.05
2019-May-12 11:01:59 1014.500 22.1 54 12.3         318.05
2019-May-12 12:01:46 1014.200 25.8 41 11.6         318.05
2019-May-12 13:01:36 1014.000 27.4 31 8.8         318.05
2019-May-12 14:01:47 1013.700 26.9 31 8.3 0.8 NNE     318.05
2019-May-12 15:01:57 1013.200 28.7 29 8.8         318.05
2019-May-12 16:01:38 1012.500 30.8 26 8.9 1.2 NNE     318.05
2019-May-12 17:01:44 1012.000 28.4 31 9.6         318.05
2019-May-12 18:01:32 1011.900 27.6 32 9.3         318.05
2019-May-12 19:01:49 1011.800 26.9 32 8.8         318.05
2019-May-12 20:01:36 1011.700 24.3 37 8.6         318.05
2019-May-12 21:01:28 1011.900 20.8 52 10.6         318.05
2019-May-12 22:01:48 1012.200 18.2 59 10.0         318.05
2019-May-12 23:01:36 1012.600 15.8 68 9.9         318.05

Temperatura Máxima:30°    Temperatura Mínima:11°
Presión Máxima:1015.100 Hpa    Presión Mínima:1011.700 Hpa


Volver